Time;durP1;ratioP1;P1;durP2;ratioP2;P2;SDS_P1;SDS_P2;PMS_P1;PMS_P2;Temp;Humidity;BMP_temperature;BMP_pressure;BME280_temperature;BME280_humidity;BME280_pressure;Samples;Min_cycle;Max_cycle;Signal;HPM_P1;HPM_P2
2022/07/22 00:01:12;;;;;;;33.97;5.30;;;;;;;;;;4935411;29;20071;-53
2022/07/22 00:03:39;;;;;;;41.17;5.35;;;;;;;;;;4935065;29;20070;-51
2022/07/22 00:06:06;;;;;;;34.80;5.50;;;;;;;;;;4933977;29;20028;-55
2022/07/22 00:08:33;;;;;;;34.28;5.40;;;;;;;;;;4934660;29;20114;-54
2022/07/22 00:11:00;;;;;;;33.83;5.50;;;;;;;;;;4935791;29;20368;-53
2022/07/22 00:13:27;;;;;;;37.75;5.18;;;;;;;;;;4935162;29;20090;-53
2022/07/22 00:15:54;;;;;;;34.03;6.38;;;;;;;;;;4935774;29;20023;-52
2022/07/22 00:18:21;;;;;;;39.47;5.35;;;;;;;;;;4932802;29;20032;-51
2022/07/22 00:20:48;;;;;;;41.90;6.50;;;;;;;;;;4935344;29;20032;-52
2022/07/22 00:23:15;;;;;;;43.17;6.47;;;;;;;;;;4935562;29;20032;-54
2022/07/22 00:25:42;;;;;;;41.45;6.22;;;;;;;;;;4927462;29;20032;-55
2022/07/22 00:28:09;;;;;;;37.55;5.47;;;;;;;;;;4934822;29;20043;-55
2022/07/22 00:30:36;;;;;;;33.60;6.00;;;;;;;;;;4932752;29;20063;-51
2022/07/22 00:33:03;;;;;;;36.15;6.05;;;;;;;;;;4934484;29;20031;-55
2022/07/22 00:35:30;;;;;;;32.95;6.65;;;;;;;;;;4934966;29;20490;-56
2022/07/22 00:37:57;;;;;;;37.20;6.45;;;;;;;;;;4935246;29;20435;-53
2022/07/22 00:40:25;;;;;;;30.27;5.65;;;;;;;;;;4935331;29;20023;-56
2022/07/22 00:42:52;;;;;;;35.50;6.63;;;;;;;;;;4932955;29;20372;-54
2022/07/22 00:45:20;;;;;;;35.65;6.57;;;;;;;;;;4934668;29;20036;-55
2022/07/22 00:47:47;;;;;;;32.70;6.45;;;;;;;;;;4933283;29;20143;-53
2022/07/22 00:50:14;;;;;;;42.65;6.95;;;;;;;;;;4934846;29;20032;-52
2022/07/22 00:52:42;;;;;;;45.50;7.63;;;;;;;;;;4934456;29;20491;-51
2022/07/22 00:55:09;;;;;;;39.53;7.78;;;;;;;;;;4932331;29;20036;-51
2022/07/22 00:57:36;;;;;;;38.47;7.93;;;;;;;;;;4934108;29;20035;-54
2022/07/22 01:00:05;;;;;;;36.17;6.93;;;;;;;;;;4934601;29;20031;-51
2022/07/22 01:02:32;;;;;;;46.20;8.13;;;;;;;;;;4934666;29;20482;-53
2022/07/22 01:04:59;;;;;;;44.97;8.18;;;;;;;;;;4934363;29;20071;-52
2022/07/22 01:07:26;;;;;;;34.22;7.85;;;;;;;;;;4933301;29;20032;-54
2022/07/22 01:09:53;;;;;;;36.47;7.55;;;;;;;;;;4934630;29;20028;-51
2022/07/22 01:12:20;;;;;;;40.60;7.22;;;;;;;;;;4934905;29;20019;-52
2022/07/22 01:14:47;;;;;;;40.22;7.55;;;;;;;;;;4937177;29;20123;-52
2022/07/22 01:17:14;;;;;;;51.70;8.27;;;;;;;;;;4937188;29;20115;-55
2022/07/22 01:19:41;;;;;;;46.80;9.38;;;;;;;;;;4937651;29;20019;-55
2022/07/22 01:22:08;;;;;;;45.72;8.45;;;;;;;;;;4938878;29;20599;-54
2022/07/22 01:24:35;;;;;;;57.17;9.07;;;;;;;;;;4937951;29;20521;-52
2022/07/22 01:27:02;;;;;;;53.45;8.77;;;;;;;;;;4938683;29;20127;-53
2022/07/22 01:29:29;;;;;;;48.70;8.63;;;;;;;;;;4936676;29;20395;-52
2022/07/22 01:31:56;;;;;;;47.58;9.00;;;;;;;;;;4937514;29;20023;-55
2022/07/22 01:34:23;;;;;;;44.55;9.63;;;;;;;;;;4937375;29;20144;-54
2022/07/22 01:36:50;;;;;;;48.72;9.63;;;;;;;;;;4938323;29;20028;-55
2022/07/22 01:39:17;;;;;;;47.35;9.93;;;;;;;;;;4937983;29;20106;-50
2022/07/22 01:41:44;;;;;;;49.10;9.45;;;;;;;;;;4935830;29;20035;-53
2022/07/22 01:44:11;;;;;;;45.30;8.18;;;;;;;;;;4938026;29;20032;-56
2022/07/22 01:46:38;;;;;;;42.15;8.63;;;;;;;;;;4937911;29;20051;-51
2022/07/22 01:49:05;;;;;;;43.83;8.65;;;;;;;;;;4938465;29;20035;-56
2022/07/22 01:51:32;;;;;;;48.90;9.88;;;;;;;;;;4939205;29;20023;-54
2022/07/22 01:53:59;;;;;;;49.45;9.52;;;;;;;;;;4936612;29;20090;-54
2022/07/22 01:56:26;;;;;;;44.40;9.50;;;;;;;;;;4938433;29;20039;-53
2022/07/22 01:58:53;;;;;;;50.28;9.50;;;;;;;;;;4937676;29;20035;-52
2022/07/22 02:01:21;;;;;;;47.55;9.10;;;;;;;;;;4938133;29;20550;-53
2022/07/22 02:03:48;;;;;;;45.85;9.15;;;;;;;;;;4937777;29;20059;-53
2022/07/22 02:06:15;;;;;;;54.28;9.98;;;;;;;;;;4933848;29;20039;-51
2022/07/22 02:08:42;;;;;;;40.38;9.52;;;;;;;;;;4930252;29;20035;-52
2022/07/22 02:11:08;;;;;;;55.13;10.27;;;;;;;;;;4937616;29;20036;-53
2022/07/22 02:13:35;;;;;;;53.88;9.80;;;;;;;;;;4937152;29;20152;-54
2022/07/22 02:16:02;;;;;;;53.08;9.95;;;;;;;;;;4937409;29;20040;-55
2022/07/22 02:18:29;;;;;;;45.30;10.25;;;;;;;;;;4935400;29;20035;-51
2022/07/22 02:20:56;;;;;;;49.70;9.85;;;;;;;;;;4935636;29;20036;-54
2022/07/22 02:23:23;;;;;;;48.03;11.00;;;;;;;;;;4937590;29;20058;-51
2022/07/22 02:25:50;;;;;;;57.20;10.90;;;;;;;;;;4937090;29;20032;-52
2022/07/22 02:28:17;;;;;;;44.47;9.65;;;;;;;;;;4937200;29;20051;-55
2022/07/22 02:30:44;;;;;;;44.47;9.43;;;;;;;;;;4935028;29;20032;-50
2022/07/22 02:33:11;;;;;;;42.17;8.98;;;;;;;;;;4937151;29;20078;-53
2022/07/22 02:35:38;;;;;;;49.25;9.93;;;;;;;;;;4937366;29;20450;-53
2022/07/22 02:38:08;;;;;;;41.97;9.65;;;;;;;;;;4937468;29;20406;-52
2022/07/22 02:40:37;;;;;;;56.67;10.45;;;;;;;;;;4935879;29;20083;-54
2022/07/22 02:43:07;;;;;;;48.50;10.48;;;;;;;;;;4935100;29;20043;-54
2022/07/22 02:45:34;;;;;;;42.63;10.32;;;;;;;;;;4937156;29;20040;-55
2022/07/22 02:48:01;;;;;;;40.05;10.15;;;;;;;;;;4936597;29;20040;-50
2022/07/22 02:50:28;;;;;;;45.85;10.45;;;;;;;;;;4937258;29;20478;-50
2022/07/22 02:52:55;;;;;;;46.10;10.80;;;;;;;;;;4934744;29;20118;-54
2022/07/22 02:55:22;;;;;;;40.72;10.57;;;;;;;;;;4934491;29;20086;-52
2022/07/22 02:57:49;;;;;;;39.10;9.93;;;;;;;;;;4936416;29;20079;-56
2022/07/22 03:00:16;;;;;;;38.20;9.35;;;;;;;;;;4936680;29;20028;-55
2022/07/22 03:02:43;;;;;;;41.88;10.30;;;;;;;;;;4936869;29;20034;-55
2022/07/22 03:05:10;;;;;;;40.15;9.93;;;;;;;;;;4935065;29;20431;-55
2022/07/22 03:07:37;;;;;;;49.20;10.90;;;;;;;;;;4935754;29;20482;-53
2022/07/22 03:10:05;;;;;;;45.88;10.38;;;;;;;;;;4936956;29;20035;-51
2022/07/22 03:12:32;;;;;;;43.70;9.90;;;;;;;;;;4935922;29;20051;-54
2022/07/22 03:14:59;;;;;;;39.63;10.05;;;;;;;;;;4936747;29;20566;-54
2022/07/22 03:17:25;;;;;;;43.75;10.13;;;;;;;;;;4934196;29;20027;-56
2022/07/22 03:19:52;;;;;;;42.90;10.50;;;;;;;;;;4936291;29;20027;-54
2022/07/22 03:22:19;;;;;;;40.30;10.80;;;;;;;;;;4935893;29;20026;-53
2022/07/22 03:24:46;;;;;;;42.17;11.15;;;;;;;;;;4936206;29;20063;-53
2022/07/22 03:27:13;;;;;;;45.15;10.52;;;;;;;;;;4935756;29;20062;-54
2022/07/22 03:29:40;;;;;;;38.28;9.43;;;;;;;;;;4933894;29;20028;-53
2022/07/22 03:32:07;;;;;;;42.00;10.02;;;;;;;;;;4935679;29;20126;-55
2022/07/22 03:34:34;;;;;;;46.88;10.38;;;;;;;;;;4936516;29;20048;-54
2022/07/22 03:37:02;;;;;;;40.90;10.32;;;;;;;;;;4934703;29;20106;-49
2022/07/22 03:39:29;;;;;;;43.38;11.23;;;;;;;;;;4936166;29;20028;-54
2022/07/22 03:41:56;;;;;;;40.97;10.50;;;;;;;;;;4933318;29;20119;-52
2022/07/22 03:44:23;;;;;;;37.83;10.25;;;;;;;;;;4936327;29;20031;-52
2022/07/22 03:46:50;;;;;;;36.45;10.43;;;;;;;;;;4934865;29;20196;-54
2022/07/22 03:49:17;;;;;;;39.92;10.60;;;;;;;;;;4935356;29;20446;-56
2022/07/22 03:51:44;;;;;;;44.25;10.20;;;;;;;;;;4935918;29;20115;-53
2022/07/22 03:54:11;;;;;;;38.80;10.63;;;;;;;;;;4933302;29;20043;-52
2022/07/22 03:56:38;;;;;;;39.67;10.23;;;;;;;;;;4935278;29;20406;-50
2022/07/22 03:59:05;;;;;;;33.90;9.75;;;;;;;;;;4936102;29;20107;-54
2022/07/22 04:01:32;;;;;;;34.47;9.77;;;;;;;;;;4935662;29;20039;-55
2022/07/22 04:03:59;;;;;;;36.97;10.13;;;;;;;;;;4935279;29;20079;-52
2022/07/22 04:06:26;;;;;;;34.83;10.18;;;;;;;;;;4933315;29;20031;-53
2022/07/22 04:08:54;;;;;;;37.35;9.98;;;;;;;;;;4935352;29;20039;-52
2022/07/22 04:11:21;;;;;;;41.47;9.65;;;;;;;;;;4935205;29;20035;-52
2022/07/22 04:13:48;;;;;;;38.63;9.90;;;;;;;;;;4935505;29;20031;-53
2022/07/22 04:16:15;;;;;;;37.70;9.48;;;;;;;;;;4933988;29;20115;-51
2022/07/22 04:18:42;;;;;;;34.58;9.85;;;;;;;;;;4925760;29;20138;-53
2022/07/22 04:21:09;;;;;;;37.92;9.82;;;;;;;;;;4935617;29;20486;-54
2022/07/22 04:23:39;;;;;;;35.65;9.48;;;;;;;;;;4935490;29;20490;-54
2022/07/22 04:26:06;;;;;;;41.70;10.30;;;;;;;;;;4935113;29;20039;-52
2022/07/22 04:28:36;;;;;;;37.10;9.50;;;;;;;;;;4934350;29;20036;-53
2022/07/22 04:31:03;;;;;;;38.00;10.23;;;;;;;;;;4933638;29;20032;-54
2022/07/22 04:33:30;;;;;;;30.70;9.52;;;;;;;;;;4933509;29;20115;-53
2022/07/22 04:35:57;;;;;;;33.47;9.88;;;;;;;;;;4935316;29;20387;-51
2022/07/22 04:38:24;;;;;;;36.08;9.98;;;;;;;;;;4934589;29;20039;-53
2022/07/22 04:40:51;;;;;;;37.08;9.88;;;;;;;;;;4932963;29;20056;-49
2022/07/22 04:43:18;;;;;;;30.33;9.55;;;;;;;;;;4934511;29;20031;-55
2022/07/22 04:45:45;;;;;;;34.05;8.93;;;;;;;;;;4934820;29;20060;-53
2022/07/22 04:48:12;;;;;;;27.65;9.20;;;;;;;;;;4935029;29;20047;-53
2022/07/22 04:50:39;;;;;;;26.73;9.05;;;;;;;;;;4934108;29;20042;-56
2022/07/22 04:53:06;;;;;;;29.75;9.65;;;;;;;;;;4933115;29;20036;-50
2022/07/22 04:55:33;;;;;;;41.75;11.25;;;;;;;;;;4934720;29;20031;-56
2022/07/22 04:58:00;;;;;;;30.98;9.05;;;;;;;;;;4935167;29;20082;-56
2022/07/22 05:00:27;;;;;;;38.05;9.93;;;;;;;;;;4934311;29;20063;-54
2022/07/22 05:02:54;;;;;;;33.75;9.40;;;;;;;;;;4934392;29;20490;-55
2022/07/22 05:05:21;;;;;;;31.13;9.63;;;;;;;;;;4932719;29;20094;-56
2022/07/22 05:07:48;;;;;;;31.45;10.18;;;;;;;;;;4934666;29;20134;-56
2022/07/22 05:10:15;;;;;;;30.40;9.30;;;;;;;;;;4935174;29;20368;-57
2022/07/22 05:12:43;;;;;;;27.55;9.15;;;;;;;;;;4934601;29;20487;-56
2022/07/22 05:15:10;;;;;;;28.00;8.57;;;;;;;;;;4934537;29;20031;-55
2022/07/22 05:17:37;;;;;;;32.08;8.82;;;;;;;;;;4932710;29;20172;-53
2022/07/22 05:20:04;;;;;;;34.28;9.23;;;;;;;;;;4934996;29;20111;-51
2022/07/22 05:22:31;;;;;;;25.98;8.73;;;;;;;;;;4934167;29;20035;-55
2022/07/22 05:24:58;;;;;;;28.25;9.70;;;;;;;;;;4934708;29;20035;-54
2022/07/22 05:27:25;;;;;;;26.98;9.00;;;;;;;;;;4933806;29;20032;-56
2022/07/22 05:29:52;;;;;;;28.10;8.70;;;;;;;;;;4933018;29;20389;-56
2022/07/22 05:32:19;;;;;;;27.92;9.00;;;;;;;;;;4934260;29;20445;-54
2022/07/22 05:34:46;;;;;;;31.92;10.52;;;;;;;;;;4934194;29;20111;-55
2022/07/22 05:37:14;;;;;;;25.35;8.82;;;;;;;;;;4934812;29;20028;-56
2022/07/22 05:39:41;;;;;;;25.17;8.70;;;;;;;;;;4933791;29;20063;-55
2022/07/22 05:42:08;;;;;;;30.38;8.50;;;;;;;;;;4932468;29;20051;-53
2022/07/22 05:44:34;;;;;;;26.90;8.77;;;;;;;;;;4934402;29;20111;-54
2022/07/22 05:47:01;;;;;;;29.98;8.65;;;;;;;;;;4934399;29;20059;-51
2022/07/22 05:49:28;;;;;;;28.98;8.50;;;;;;;;;;4934250;29;20047;-52
2022/07/22 05:52:00;;;;;;;23.48;8.23;;;;;;;;;;4933383;29;20031;-53
2022/07/22 05:54:27;;;;;;;23.90;8.60;;;;;;;;;;4933246;29;20091;-51
2022/07/22 05:56:54;;;;;;;26.75;8.23;;;;;;;;;;4934234;29;20119;-55
2022/07/22 05:59:21;;;;;;;23.95;9.15;;;;;;;;;;4934762;29;20478;-54
2022/07/22 06:01:48;;;;;;;31.25;8.57;;;;;;;;;;4937339;29;20024;-52
2022/07/22 06:04:15;;;;;;;24.75;7.78;;;;;;;;;;4936882;29;20062;-51
2022/07/22 06:06:42;;;;;;;17.52;7.72;;;;;;;;;;4928434;29;20050;-52
2022/07/22 06:09:09;;;;;;;25.85;8.13;;;;;;;;;;4938103;29;20036;-51
2022/07/22 06:11:35;;;;;;;22.90;7.63;;;;;;;;;;4937827;29;20035;-53
2022/07/22 06:14:02;;;;;;;29.85;8.57;;;;;;;;;;4936949;29;20035;-56
2022/07/22 06:16:29;;;;;;;23.45;8.20;;;;;;;;;;4936152;29;20074;-53
2022/07/22 06:18:56;;;;;;;23.52;7.55;;;;;;;;;;4936155;29;20486;-53
2022/07/22 06:21:23;;;;;;;22.25;7.80;;;;;;;;;;4937848;29;20032;-50
2022/07/22 06:23:50;;;;;;;20.60;7.60;;;;;;;;;;4937782;29;20055;-49
2022/07/22 06:26:17;;;;;;;19.88;7.05;;;;;;;;;;4937620;29;20027;-53
2022/07/22 06:28:44;;;;;;;20.00;6.80;;;;;;;;;;4934937;29;20027;-54
2022/07/22 06:31:11;;;;;;;22.63;7.13;;;;;;;;;;4934783;29;20035;-55
2022/07/22 06:33:38;;;;;;;17.20;6.90;;;;;;;;;;4937692;29;20035;-54
2022/07/22 06:36:05;;;;;;;16.90;7.13;;;;;;;;;;4937554;29;20120;-53
2022/07/22 06:38:32;;;;;;;18.85;6.75;;;;;;;;;;4936775;29;20107;-53
2022/07/22 06:40:59;;;;;;;20.90;6.50;;;;;;;;;;4934310;29;20031;-53
2022/07/22 06:43:30;;;;;;;21.42;7.15;;;;;;;;;;4937304;29;20040;-54
2022/07/22 06:45:57;;;;;;;21.73;7.15;;;;;;;;;;4937059;29;20481;-54
2022/07/22 06:48:24;;;;;;;20.17;6.07;;;;;;;;;;4936584;29;20024;-54
2022/07/22 06:50:51;;;;;;;17.52;7.13;;;;;;;;;;4937077;29;20028;-49
2022/07/22 06:53:18;;;;;;;19.23;6.75;;;;;;;;;;4934179;29;20047;-54
2022/07/22 06:55:45;;;;;;;18.52;6.70;;;;;;;;;;4937217;29;20059;-53
2022/07/22 06:58:12;;;;;;;15.57;6.63;;;;;;;;;;4937164;29;20032;-55
2022/07/22 07:00:39;;;;;;;13.95;5.68;;;;;;;;;;4936541;29;20114;-51
2022/07/22 07:03:06;;;;;;;17.27;5.72;;;;;;;;;;4935993;29;20023;-54
2022/07/22 07:05:33;;;;;;;12.32;5.47;;;;;;;;;;4934631;29;20031;-54
2022/07/22 07:08:00;;;;;;;15.68;5.55;;;;;;;;;;4936354;29;20067;-53
2022/07/22 07:10:27;;;;;;;13.00;5.90;;;;;;;;;;4936688;29;20039;-53
2022/07/22 07:12:58;;;;;;;12.32;5.22;;;;;;;;;;4934945;29;20399;-53
2022/07/22 07:15:26;;;;;;;10.80;5.30;;;;;;;;;;4935919;29;20063;-53
2022/07/22 07:17:53;;;;;;;13.18;5.22;;;;;;;;;;4934989;29;20028;-54
2022/07/22 07:20:20;;;;;;;13.88;5.40;;;;;;;;;;4935815;29;20034;-53
2022/07/22 07:22:47;;;;;;;14.38;5.28;;;;;;;;;;4936845;29;20525;-53
2022/07/22 07:25:14;;;;;;;10.25;5.25;;;;;;;;;;4936559;29;20122;-54
2022/07/22 07:27:41;;;;;;;14.98;5.22;;;;;;;;;;4935071;29;20035;-56
2022/07/22 07:30:09;;;;;;;14.07;5.65;;;;;;;;;;4935008;29;20024;-54
2022/07/22 07:32:36;;;;;;;14.07;5.28;;;;;;;;;;4935984;29;20044;-52
2022/07/22 07:35:04;;;;;;;11.73;4.63;;;;;;;;;;4936432;29;20036;-53
2022/07/22 07:37:32;;;;;;;12.30;4.88;;;;;;;;;;4935589;29;20036;-53
2022/07/22 07:39:59;;;;;;;14.27;5.32;;;;;;;;;;4934721;29;20039;-55
2022/07/22 07:42:26;;;;;;;15.13;4.70;;;;;;;;;;4935327;29;20044;-51
2022/07/22 07:44:53;;;;;;;14.48;5.13;;;;;;;;;;4935787;29;20494;-51
2022/07/22 07:47:20;;;;;;;14.82;4.78;;;;;;;;;;4936139;29;20047;-53
2022/07/22 07:49:48;;;;;;;11.15;4.95;;;;;;;;;;4936014;29;20055;-52
2022/07/22 07:52:15;;;;;;;12.82;4.32;;;;;;;;;;4932944;29;20098;-53
2022/07/22 07:54:43;;;;;;;12.25;4.72;;;;;;;;;;4935934;29;20118;-53
2022/07/22 07:57:11;;;;;;;10.82;4.68;;;;;;;;;;4935447;29;20028;-52
2022/07/22 07:59:38;;;;;;;10.40;4.32;;;;;;;;;;4935438;29;20032;-53
2022/07/22 08:02:06;;;;;;;14.50;4.30;;;;;;;;;;4933658;29;20391;-55
2022/07/22 08:04:33;;;;;;;9.07;4.40;;;;;;;;;;4933546;29;20106;-52
2022/07/22 08:07:00;;;;;;;12.10;4.90;;;;;;;;;;4935325;29;20403;-52
2022/07/22 08:09:27;;;;;;;14.38;4.93;;;;;;;;;;4935609;29;20058;-55
2022/07/22 08:11:54;;;;;;;12.23;4.40;;;;;;;;;;4935146;29;20039;-52
2022/07/22 08:14:21;;;;;;;11.90;4.63;;;;;;;;;;4935409;29;20040;-56
2022/07/22 08:16:48;;;;;;;10.45;4.13;;;;;;;;;;4933086;29;20032;-56
2022/07/22 08:19:15;;;;;;;10.60;4.35;;;;;;;;;;4935352;29;20075;-55
2022/07/22 08:21:42;;;;;;;9.90;3.80;;;;;;;;;;4926755;29;20036;-51
2022/07/22 08:24:10;;;;;;;10.93;4.45;;;;;;;;;;4934818;29;20099;-55
2022/07/22 08:26:37;;;;;;;12.25;4.38;;;;;;;;;;4934450;29;20111;-55
2022/07/22 08:29:05;;;;;;;8.77;3.95;;;;;;;;;;4933646;29;20102;-54
2022/07/22 08:31:34;;;;;;;12.57;4.55;;;;;;;;;;4934773;29;20032;-52
2022/07/22 08:34:02;;;;;;;10.48;3.95;;;;;;;;;;4935462;29;20043;-55
2022/07/22 08:36:29;;;;;;;8.82;4.55;;;;;;;;;;4933939;29;20039;-55
2022/07/22 08:38:56;;;;;;;11.00;4.18;;;;;;;;;;4934781;29;20107;-53
2022/07/22 08:41:24;;;;;;;11.98;4.85;;;;;;;;;;4933806;29;20091;-54
2022/07/22 08:43:51;;;;;;;11.63;3.80;;;;;;;;;;4934808;29;20091;-49
2022/07/22 08:46:18;;;;;;;9.82;3.97;;;;;;;;;;4934545;29;20487;-53
2022/07/22 08:48:46;;;;;;;9.95;4.28;;;;;;;;;;4934813;29;20498;-52
2022/07/22 08:51:13;;;;;;;9.00;3.45;;;;;;;;;;4933833;29;20028;-54
2022/07/22 08:53:40;;;;;;;13.10;4.38;;;;;;;;;;4933229;29;20044;-50
2022/07/22 08:56:07;;;;;;;10.00;4.30;;;;;;;;;;4935122;29;20160;-54
2022/07/22 08:58:34;;;;;;;14.82;4.00;;;;;;;;;;4934445;29;20035;-54
2022/07/22 09:01:08;;;;;;;10.50;4.25;;;;;;;;;;4935316;29;20478;-53
2022/07/22 09:03:44;;;;;;;11.45;3.92;;;;;;;;;;4933181;29;20040;-54
2022/07/22 09:06:11;;;;;;;10.38;3.80;;;;;;;;;;4934149;29;20035;-54
2022/07/22 09:09:01;;;;;;;6.63;3.40;;;;;;;;;;4935008;29;20035;-53
2022/07/22 09:11:28;;;;;;;7.90;3.38;;;;;;;;;;4934309;29;20035;-53
2022/07/22 09:13:56;;;;;;;6.97;3.20;;;;;;;;;;4934942;29;20051;-55
2022/07/22 09:16:58;;;;;;;8.20;3.40;;;;;;;;;;4931804;29;20032;-52
2022/07/22 09:19:32;;;;;;;8.40;3.42;;;;;;;;;;4876419;29;20133;-54
2022/07/22 09:21:59;;;;;;;8.10;3.58;;;;;;;;;;4925368;29;20111;-52
2022/07/22 09:24:31;;;;;;;7.45;3.50;;;;;;;;;;4934461;29;20039;-53
2022/07/22 09:26:58;;;;;;;6.75;3.17;;;;;;;;;;4934019;29;20107;-51
2022/07/22 09:29:25;;;;;;;9.48;3.25;;;;;;;;;;4933445;29;20038;-54
2022/07/22 09:31:52;;;;;;;9.35;3.85;;;;;;;;;;4934122;29;20101;-53
2022/07/22 09:34:30;;;;;;;8.00;3.58;;;;;;;;;;4935029;29;20040;-50
2022/07/22 09:36:58;;;;;;;8.02;3.40;;;;;;;;;;4937720;29;20027;-54
2022/07/22 09:39:26;;;;;;;7.57;3.05;;;;;;;;;;4937320;29;20522;-53
2022/07/22 09:42:00;;;;;;;11.52;3.42;;;;;;;;;;4937614;29;20023;-51
2022/07/22 09:44:28;;;;;;;10.57;3.10;;;;;;;;;;4937798;29;20055;-51
2022/07/22 09:46:54;;;;;;;8.65;3.08;;;;;;;;;;4938131;29;20044;-51
2022/07/22 09:49:50;;;;;;;10.13;3.20;;;;;;;;;;4937663;29;20035;-52
2022/07/22 09:52:18;;;;;;;5.55;2.80;;;;;;;;;;4923413;29;20075;-50
2022/07/22 09:54:45;;;;;;;5.38;2.80;;;;;;;;;;4938168;29;20130;-52
2022/07/22 09:57:12;;;;;;;6.03;3.03;;;;;;;;;;4938274;29;20028;-54
2022/07/22 09:59:39;;;;;;;7.25;2.90;;;;;;;;;;4937416;29;20024;-50
2022/07/22 10:02:07;;;;;;;7.78;2.58;;;;;;;;;;4937179;29;20038;-52
2022/07/22 10:04:35;;;;;;;6.47;2.85;;;;;;;;;;4935346;29;20062;-49
2022/07/22 10:07:02;;;;;;;6.03;2.55;;;;;;;;;;4937478;29;20032;-52
2022/07/22 10:09:30;;;;;;;8.55;3.45;;;;;;;;;;4937404;29;20046;-50
2022/07/22 10:11:57;;;;;;;7.93;2.83;;;;;;;;;;4937582;29;20023;-53
2022/07/22 10:14:25;;;;;;;7.30;2.80;;;;;;;;;;4936897;29;20036;-52
2022/07/22 10:16:51;;;;;;;7.05;2.80;;;;;;;;;;4935531;29;20119;-55
2022/07/22 10:19:19;;;;;;;7.93;2.92;;;;;;;;;;4937324;29;20032;-54
2022/07/22 10:21:46;;;;;;;6.18;2.85;;;;;;;;;;4936808;29;20166;-53
2022/07/22 10:24:14;;;;;;;5.95;2.42;;;;;;;;;;4937203;29;20110;-54
2022/07/22 10:26:51;;;;;;;7.35;2.60;;;;;;;;;;4936627;29;20496;-54
2022/07/22 10:29:27;;;;;;;7.70;2.88;;;;;;;;;;4935498;29;20031;-53
2022/07/22 10:32:13;;;;;;;5.50;2.50;;;;;;;;;;4937701;29;20501;-54
2022/07/22 10:34:40;;;;;;;9.23;2.47;;;;;;;;;;4929935;29;20064;-50
2022/07/22 10:37:26;;;;;;;7.78;2.95;;;;;;;;;;4937238;29;20115;-55
2022/07/22 10:40:12;;;;;;;8.68;2.50;;;;;;;;;;4934816;29;20043;-53
2022/07/22 10:43:08;;;;;;;9.45;2.40;;;;;;;;;;4937384;29;20486;-53
2022/07/22 10:45:37;;;;;;;7.78;2.75;;;;;;;;;;4924916;29;20052;-54
2022/07/22 10:48:07;;;;;;;8.02;2.80;;;;;;;;;;4936364;29;20694;-51
2022/07/22 10:50:41;;;;;;;7.32;2.50;;;;;;;;;;4936304;29;20561;-51
2022/07/22 10:53:08;;;;;;;7.50;2.47;;;;;;;;;;4934784;29;20043;-56
2022/07/22 10:55:35;;;;;;;8.18;2.58;;;;;;;;;;4936694;29;20047;-51
2022/07/22 10:58:20;;;;;;;6.35;2.60;;;;;;;;;;4935633;29;20123;-54
2022/07/22 11:00:48;;;;;;;6.18;2.85;;;;;;;;;;4936376;29;20126;-54
2022/07/22 11:03:25;;;;;;;8.35;2.45;;;;;;;;;;4935009;29;20039;-53
2022/07/22 11:05:52;;;;;;;6.57;2.83;;;;;;;;;;4935568;29;20057;-56
2022/07/22 11:08:20;;;;;;;15.52;2.75;;;;;;;;;;4937063;29;20032;-55
2022/07/22 11:10:50;;;;;;;9.75;2.65;;;;;;;;;;4936335;29;20111;-50
2022/07/22 11:13:37;;;;;;;10.50;2.22;;;;;;;;;;4936693;29;20035;-50
2022/07/22 11:16:20;;;;;;;9.18;2.38;;;;;;;;;;4933947;29;20034;-50
2022/07/22 11:18:48;;;;;;;7.22;2.50;;;;;;;;;;4936809;29;20028;-53
2022/07/22 11:21:16;;;;;;;9.00;2.65;;;;;;;;;;4936031;29;20036;-54
2022/07/22 11:23:44;;;;;;;4.22;2.08;;;;;;;;;;4936274;29;20035;-51
2022/07/22 11:26:14;;;;;;;6.78;2.40;;;;;;;;;;4935733;29;20051;-55
2022/07/22 11:28:45;;;;;;;8.07;2.38;;;;;;;;;;4934545;29;20046;-51
2022/07/22 11:31:15;;;;;;;9.95;3.03;;;;;;;;;;4936233;29;20024;-55
2022/07/22 11:33:42;;;;;;;4.72;2.10;;;;;;;;;;4928429;29;20054;-48
2022/07/22 11:36:10;;;;;;;12.52;2.95;;;;;;;;;;4951823;29;20038;-53
2022/07/22 11:38:41;;;;;;;8.55;2.20;;;;;;;;;;4954038;29;20114;-54
2022/07/22 11:41:08;;;;;;;8.02;2.95;;;;;;;;;;4954054;29;20063;-53
2022/07/22 11:43:42;;;;;;;10.07;2.40;;;;;;;;;;4954762;29;20105;-52
2022/07/22 11:46:09;;;;;;;7.70;2.50;;;;;;;;;;4954349;29;20110;-53
2022/07/22 11:48:37;;;;;;;11.45;2.75;;;;;;;;;;4955326;29;20146;-50
2022/07/22 11:51:05;;;;;;;8.55;2.20;;;;;;;;;;4952615;29;20038;-55
2022/07/22 11:53:32;;;;;;;10.55;2.60;;;;;;;;;;4953440;29;20031;-54
2022/07/22 11:55:59;;;;;;;11.13;2.30;;;;;;;;;;4954207;29;20035;-53
2022/07/22 11:58:36;;;;;;;9.13;2.83;;;;;;;;;;4953039;28;20186;-52
2022/07/22 12:01:05;;;;;;;8.25;2.60;;;;;;;;;;4954988;29;20110;-49
2022/07/22 12:03:34;;;;;;;6.55;2.50;;;;;;;;;;4951429;29;20805;-54
2022/07/22 12:06:01;;;;;;;10.93;2.60;;;;;;;;;;4954012;29;20066;-53
2022/07/22 12:08:28;;;;;;;7.80;2.85;;;;;;;;;;4954598;29;20710;-50
2022/07/22 12:10:57;;;;;;;5.45;2.53;;;;;;;;;;4954924;29;20034;-55
2022/07/22 12:13:29;;;;;;;11.68;2.72;;;;;;;;;;4953853;29;20046;-56
2022/07/22 12:15:56;;;;;;;8.00;2.45;;;;;;;;;;4951610;29;20035;-56
2022/07/22 12:18:24;;;;;;;7.65;2.40;;;;;;;;;;4954908;29;20036;-56
2022/07/22 12:20:51;;;;;;;6.88;2.25;;;;;;;;;;4954585;29;20055;-52
2022/07/22 12:23:18;;;;;;;8.90;2.60;;;;;;;;;;4953565;29;20027;-56
2022/07/22 12:25:59;;;;;;;5.65;2.33;;;;;;;;;;4954122;29;20036;-57
2022/07/22 12:28:27;;;;;;;6.70;2.42;;;;;;;;;;4952383;29;20038;-55
2022/07/22 12:30:55;;;;;;;6.15;2.10;;;;;;;;;;4954385;29;20046;-56
2022/07/22 12:33:22;;;;;;;8.25;2.67;;;;;;;;;;4953576;29;20500;-55
2022/07/22 12:36:06;;;;;;;6.00;2.40;;;;;;;;;;4953716;29;20027;-55
2022/07/22 12:38:34;;;;;;;6.05;2.20;;;;;;;;;;4953049;29;20066;-54
2022/07/22 12:41:19;;;;;;;6.95;2.20;;;;;;;;;;4953328;29;20082;-54
2022/07/22 12:43:46;;;;;;;4.57;1.90;;;;;;;;;;4953993;29;20047;-56
2022/07/22 12:46:13;;;;;;;4.70;1.98;;;;;;;;;;4953261;29;20105;-54
2022/07/22 12:48:49;;;;;;;7.72;2.20;;;;;;;;;;4954281;29;20031;-50
2022/07/22 12:51:16;;;;;;;6.47;2.00;;;;;;;;;;4934100;29;20698;-57
2022/07/22 12:53:43;;;;;;;4.03;1.65;;;;;;;;;;4954174;29;20525;-52
2022/07/22 12:56:10;;;;;;;5.55;2.22;;;;;;;;;;4953201;29;20039;-56
2022/07/22 12:58:40;;;;;;;6.38;2.08;;;;;;;;;;4954113;29;20028;-56
2022/07/22 13:01:07;;;;;;;11.65;2.22;;;;;;;;;;4953580;29;20062;-55
2022/07/22 13:03:34;;;;;;;5.65;2.38;;;;;;;;;;4951613;29;20626;-53
2022/07/22 13:06:03;;;;;;;5.63;1.95;;;;;;;;;;4953509;29;20034;-54
2022/07/22 13:08:31;;;;;;;5.50;1.98;;;;;;;;;;4953297;28;20067;-55
2022/07/22 13:10:58;;;;;;;7.70;2.05;;;;;;;;;;4956303;29;20035;-56
2022/07/22 13:13:25;;;;;;;7.88;1.70;;;;;;;;;;4957851;29;20102;-57
2022/07/22 13:15:52;;;;;;;7.20;2.10;;;;;;;;;;4954973;29;20121;-54
2022/07/22 13:18:19;;;;;;;7.53;1.95;;;;;;;;;;4945683;29;20032;-53
2022/07/22 13:20:47;;;;;;;8.20;2.03;;;;;;;;;;4938030;29;20091;-53
2022/07/22 13:23:14;;;;;;;5.47;1.73;;;;;;;;;;4938942;29;20042;-52
2022/07/22 13:25:41;;;;;;;8.23;1.95;;;;;;;;;;4937291;29;20035;-58
2022/07/22 13:28:08;;;;;;;6.90;2.38;;;;;;;;;;4936191;29;20027;-58
2022/07/22 13:30:36;;;;;;;6.10;2.17;;;;;;;;;;4938592;29;20032;-58
2022/07/22 13:33:03;;;;;;;8.50;2.38;;;;;;;;;;4938001;29;20548;-55
2022/07/22 13:35:30;;;;;;;6.63;1.90;;;;;;;;;;4938402;29;20036;-57
2022/07/22 13:37:57;;;;;;;7.82;2.20;;;;;;;;;;4937303;29;20031;-58
2022/07/22 13:40:24;;;;;;;6.22;2.17;;;;;;;;;;4937034;29;20043;-58
2022/07/22 13:42:51;;;;;;;4.95;2.13;;;;;;;;;;4938226;29;20446;-56
2022/07/22 13:45:18;;;;;;;6.38;2.03;;;;;;;;;;4937851;29;20032;-57
2022/07/22 13:47:45;;;;;;;4.82;2.00;;;;;;;;;;4938205;29;20433;-55
2022/07/22 13:50:12;;;;;;;6.55;2.13;;;;;;;;;;4936248;29;20375;-57
2022/07/22 13:52:39;;;;;;;6.28;2.30;;;;;;;;;;4937393;29;20405;-55
2022/07/22 13:55:06;;;;;;;7.53;2.60;;;;;;;;;;4937634;29;20071;-53
2022/07/22 13:57:33;;;;;;;6.72;2.08;;;;;;;;;;4938276;29;20114;-56
2022/07/22 14:00:00;;;;;;;6.60;2.40;;;;;;;;;;4937331;29;20038;-57
2022/07/22 14:02:27;;;;;;;7.97;2.47;;;;;;;;;;4936637;29;20035;-54
2022/07/22 14:04:54;;;;;;;4.15;2.00;;;;;;;;;;4936740;29;20028;-57
2022/07/22 14:07:21;;;;;;;6.72;2.80;;;;;;;;;;4937652;29;20398;-52
2022/07/22 14:09:48;;;;;;;4.78;2.33;;;;;;;;;;4937526;29;20439;-58
2022/07/22 14:12:16;;;;;;;5.50;2.53;;;;;;;;;;4937477;29;20055;-56
2022/07/22 14:14:43;;;;;;;6.82;2.80;;;;;;;;;;4927664;29;20043;-56
2022/07/22 14:17:10;;;;;;;8.07;3.00;;;;;;;;;;4937565;29;20031;-55
2022/07/22 14:19:37;;;;;;;7.18;2.78;;;;;;;;;;4937583;29;20063;-55
2022/07/22 14:22:04;;;;;;;10.88;2.92;;;;;;;;;;4936856;29;20501;-57
2022/07/22 14:24:31;;;;;;;8.85;2.83;;;;;;;;;;4937619;29;20110;-53
2022/07/22 14:26:59;;;;;;;6.00;2.47;;;;;;;;;;4935428;29;20502;-58
2022/07/22 14:29:26;;;;;;;7.72;2.97;;;;;;;;;;4936872;29;20035;-55
2022/07/22 14:31:53;;;;;;;13.32;2.83;;;;;;;;;;4937060;29;20455;-58
2022/07/22 14:34:20;;;;;;;11.30;3.00;;;;;;;;;;4937348;29;20031;-54
2022/07/22 14:36:48;;;;;;;4.28;2.15;;;;;;;;;;4936958;29;20032;-57
2022/07/22 14:39:15;;;;;;;6.00;2.75;;;;;;;;;;4935230;29;20031;-57